Terminal Aerodrome Forecast
Issued by NWS Indianapolis, IN

Home | Current Version | Previous Version | Text Only | Print | Product List | Glossary On
Versions: 1 2 3 4 5 6 7 8 9 10 11 12 13 14 15 16 17 18 19 20 21 22 23 24
813
FTUS43 KIND 080520
TAFIND
TAF
KIND 080520Z 0806/0912 26007KT P6SM SCT050 BKN100
     FM081200 26007KT P6SM SCT025 OVC040
     FM081500 28011G18KT 3SM -SHSN OVC020
     FM081900 29013G22KT 5SM -SHSN OVC025=

USA.gov is the U.S. government's official web portal to all federal, state and local government web resources and services.